Time;durP1;ratioP1;P1;durP2;ratioP2;P2;SDS_P1;SDS_P2;PMS_P1;PMS_P2;Temp;Humidity;BMP_temperature;BMP_pressure;BME280_temperature;BME280_humidity;BME280_pressure;Samples;Min_cycle;Max_cycle;Signal;HPM_P1;HPM_P2
2021/04/23 00:02:25;;;;;;;12.77;6.85;;;;;;;;;;5098480;28;20271;-61
2021/04/23 00:04:53;;;;;;;14.02;5.65;;;;;;;;;;5093856;28;20231;-62
2021/04/23 00:07:20;;;;;;;13.20;6.35;;;;;;;;;;5093429;28;20215;-63
2021/04/23 00:09:46;;;;;;;12.57;6.97;;;;;;;;;;5093847;28;20268;-62
2021/04/23 00:12:14;;;;;;;12.32;7.47;;;;;;;;;;5093948;28;20210;-63
2021/04/23 00:14:42;;;;;;;15.40;7.25;;;;;;;;;;5094150;28;20260;-62
2021/04/23 00:17:09;;;;;;;10.88;6.53;;;;;;;;;;5094142;28;20203;-61
2021/04/23 00:19:36;;;;;;;10.55;5.95;;;;;;;;;;5094036;28;20203;-62
2021/04/23 00:22:05;;;;;;;14.10;6.25;;;;;;;;;;5094268;28;20693;-62
2021/04/23 00:24:32;;;;;;;9.25;6.03;;;;;;;;;;5097354;28;20198;-62
2021/04/23 00:26:58;;;;;;;9.10;5.65;;;;;;;;;;5097489;28;20692;-62
2021/04/23 00:29:25;;;;;;;13.88;6.18;;;;;;;;;;5097610;28;20223;-62
2021/04/23 00:34:38;;;;;;;9.77;6.30;;;;;;;;;;5097267;28;20284;-62
2021/04/23 00:37:06;;;;;;;14.73;6.75;;;;;;;;;;5097260;28;20365;-62
2021/04/23 00:39:35;;;;;;;11.10;6.28;;;;;;;;;;5097194;28;20661;-62
2021/04/23 00:42:01;;;;;;;9.98;6.85;;;;;;;;;;5097377;28;20202;-62
2021/04/23 00:44:28;;;;;;;15.10;7.43;;;;;;;;;;5097086;28;20204;-63
2021/04/23 00:46:55;;;;;;;11.18;6.20;;;;;;;;;;5096942;28;20223;-61
2021/04/23 00:49:22;;;;;;;10.95;6.03;;;;;;;;;;5096791;28;20220;-63
2021/04/23 00:51:51;;;;;;;16.02;7.22;;;;;;;;;;5097433;28;20210;-61
2021/04/23 00:54:19;;;;;;;14.10;6.93;;;;;;;;;;5097182;28;20197;-62
2021/04/23 00:56:45;;;;;;;13.43;7.25;;;;;;;;;;5096952;28;20230;-62
2021/04/23 00:59:13;;;;;;;12.73;6.53;;;;;;;;;;5096898;28;20553;-61
2021/04/23 01:01:41;;;;;;;11.50;5.80;;;;;;;;;;5096672;28;20264;-62
2021/04/23 01:04:08;;;;;;;8.93;5.78;;;;;;;;;;5097124;28;20622;-61
2021/04/23 01:06:36;;;;;;;7.68;5.45;;;;;;;;;;5096497;28;20233;-61
2021/04/23 01:09:06;;;;;;;10.50;6.43;;;;;;;;;;5096911;28;20231;-62
2021/04/23 01:11:33;;;;;;;11.55;6.35;;;;;;;;;;5096671;28;20199;-62
2021/04/23 01:14:00;;;;;;;10.57;5.70;;;;;;;;;;5096523;28;20722;-62
2021/04/23 01:16:27;;;;;;;15.35;6.63;;;;;;;;;;5096694;28;20229;-61
2021/04/23 01:18:54;;;;;;;10.15;6.30;;;;;;;;;;5096534;28;20546;-62
2021/04/23 01:21:23;;;;;;;10.52;5.90;;;;;;;;;;5096692;28;20623;-62
2021/04/23 01:23:52;;;;;;;14.43;6.10;;;;;;;;;;5096640;28;20207;-61
2021/04/23 01:26:20;;;;;;;10.05;6.05;;;;;;;;;;5096612;28;20270;-61
2021/04/23 01:28:47;;;;;;;8.70;6.47;;;;;;;;;;5096756;28;20729;-63
2021/04/23 01:31:15;;;;;;;13.25;5.90;;;;;;;;;;5096881;28;20214;-63
2021/04/23 01:33:43;;;;;;;14.13;7.22;;;;;;;;;;5096977;28;20203;-62
2021/04/23 01:36:12;;;;;;;9.73;6.75;;;;;;;;;;5096787;28;20226;-62
2021/04/23 01:38:40;;;;;;;12.30;6.40;;;;;;;;;;5096547;28;20200;-61
2021/04/23 01:41:07;;;;;;;12.98;6.70;;;;;;;;;;5096984;28;20205;-62
2021/04/23 01:43:35;;;;;;;11.32;6.45;;;;;;;;;;5096832;28;20670;-61
2021/04/23 01:46:01;;;;;;;9.02;6.10;;;;;;;;;;5097424;28;20591;-61
2021/04/23 01:48:28;;;;;;;10.48;6.50;;;;;;;;;;5097943;28;20213;-62
2021/04/23 01:50:55;;;;;;;11.45;6.70;;;;;;;;;;5105322;28;20197;-62
2021/04/23 01:53:22;;;;;;;10.57;6.35;;;;;;;;;;5097605;28;20200;-63
2021/04/23 01:55:50;;;;;;;9.50;6.25;;;;;;;;;;5097202;28;20230;-62
2021/04/23 01:58:16;;;;;;;12.82;6.13;;;;;;;;;;5097876;28;20199;-63
2021/04/23 02:00:44;;;;;;;9.48;5.22;;;;;;;;;;5099449;28;20197;-62
2021/04/23 02:03:11;;;;;;;15.30;6.93;;;;;;;;;;5099567;28;20210;-62
2021/04/23 02:05:39;;;;;;;11.82;6.43;;;;;;;;;;5098156;28;20244;-61
2021/04/23 02:08:06;;;;;;;12.55;7.30;;;;;;;;;;5100105;28;20209;-62
2021/04/23 02:10:34;;;;;;;10.15;6.07;;;;;;;;;;5100038;28;20260;-62
2021/04/23 02:13:03;;;;;;;13.95;7.20;;;;;;;;;;5099614;28;20275;-62
2021/04/23 02:15:30;;;;;;;14.43;6.63;;;;;;;;;;5100466;28;20225;-61
2021/04/23 02:17:57;;;;;;;10.75;6.90;;;;;;;;;;5099978;28;20219;-62
2021/04/23 02:20:25;;;;;;;11.25;5.95;;;;;;;;;;5099456;28;20581;-62
2021/04/23 02:22:52;;;;;;;15.90;6.40;;;;;;;;;;5097203;28;20213;-62
2021/04/23 02:25:20;;;;;;;11.85;5.40;;;;;;;;;;5096571;28;20279;-61
2021/04/23 02:27:47;;;;;;;14.80;6.78;;;;;;;;;;5095685;28;20287;-63
2021/04/23 02:30:17;;;;;;;10.85;6.40;;;;;;;;;;5095884;28;20203;-62
2021/04/23 02:32:44;;;;;;;13.38;6.45;;;;;;;;;;5095493;28;20230;-61
2021/04/23 02:35:13;;;;;;;14.68;6.65;;;;;;;;;;5095245;28;20708;-62
2021/04/23 02:37:39;;;;;;;10.35;5.80;;;;;;;;;;5096989;28;20203;-62
2021/04/23 02:40:07;;;;;;;13.18;5.80;;;;;;;;;;5097399;28;20212;-62
2021/04/23 02:42:35;;;;;;;14.50;7.03;;;;;;;;;;5095256;28;20203;-61
2021/04/23 02:45:02;;;;;;;14.13;6.53;;;;;;;;;;5094925;28;20222;-62
2021/04/23 02:47:29;;;;;;;13.73;5.32;;;;;;;;;;5094158;28;20630;-61
2021/04/23 02:49:56;;;;;;;13.20;6.38;;;;;;;;;;5094638;28;20313;-61
2021/04/23 02:52:23;;;;;;;13.98;6.00;;;;;;;;;;5094741;28;20199;-61
2021/04/23 02:54:50;;;;;;;14.07;6.57;;;;;;;;;;5094597;28;20205;-61
2021/04/23 02:57:16;;;;;;;13.00;6.25;;;;;;;;;;5094682;28;20199;-61
2021/04/23 02:59:44;;;;;;;11.13;6.35;;;;;;;;;;5099467;28;20224;-61
2021/04/23 03:02:11;;;;;;;7.65;5.70;;;;;;;;;;5111832;28;20243;-61
2021/04/23 03:04:39;;;;;;;9.77;6.50;;;;;;;;;;5104610;28;20686;-61
2021/04/23 03:07:06;;;;;;;13.43;6.82;;;;;;;;;;5108448;28;20241;-61
2021/04/23 03:09:32;;;;;;;9.82;6.03;;;;;;;;;;5113577;28;20257;-61
2021/04/23 03:12:00;;;;;;;16.85;6.90;;;;;;;;;;5113545;28;20183;-62
2021/04/23 03:14:27;;;;;;;9.88;6.03;;;;;;;;;;5108681;28;20203;-61
2021/04/23 03:16:54;;;;;;;10.32;6.35;;;;;;;;;;5106299;28;20229;-62
2021/04/23 03:19:21;;;;;;;13.95;6.60;;;;;;;;;;5104807;28;20569;-62
2021/04/23 03:21:50;;;;;;;10.95;6.75;;;;;;;;;;5105150;28;20201;-62
2021/04/23 03:24:17;;;;;;;18.42;6.80;;;;;;;;;;5104156;28;20206;-61
2021/04/23 03:26:45;;;;;;;13.60;7.10;;;;;;;;;;5104723;28;20219;-61
2021/04/23 03:29:12;;;;;;;13.88;6.82;;;;;;;;;;5105242;28;20219;-63
2021/04/23 03:31:39;;;;;;;14.00;7.88;;;;;;;;;;5104262;28;20202;-62
2021/04/23 03:34:06;;;;;;;9.90;6.20;;;;;;;;;;5104027;28;20205;-63
2021/04/23 03:36:33;;;;;;;9.50;6.05;;;;;;;;;;5096766;28;20276;-62
2021/04/23 03:39:01;;;;;;;13.55;6.47;;;;;;;;;;5096011;28;20221;-62
2021/04/23 03:41:30;;;;;;;10.45;6.75;;;;;;;;;;5094634;28;20274;-62
2021/04/23 03:43:57;;;;;;;11.85;6.68;;;;;;;;;;5094047;28;20239;-61
2021/04/23 03:46:24;;;;;;;13.02;6.93;;;;;;;;;;5094058;28;20223;-63
2021/04/23 03:48:51;;;;;;;12.23;6.95;;;;;;;;;;5094314;28;20231;-61
2021/04/23 03:51:18;;;;;;;13.23;7.07;;;;;;;;;;5094236;28;20201;-62
2021/04/23 03:53:46;;;;;;;11.60;7.60;;;;;;;;;;5094218;28;20717;-62
2021/04/23 03:56:14;;;;;;;17.20;6.20;;;;;;;;;;5094019;28;20217;-61
2021/04/23 03:58:41;;;;;;;11.82;6.50;;;;;;;;;;5093630;28;20691;-62
2021/04/23 04:01:09;;;;;;;13.25;6.88;;;;;;;;;;5093542;28;20671;-60
2021/04/23 04:03:37;;;;;;;11.43;6.25;;;;;;;;;;5093802;28;20627;-62
2021/04/23 04:08:01;;;;;;;14.02;6.80;;;;;;;;;;5112489;27;20553;-61
2021/04/23 04:10:28;;;;;;;14.45;7.70;;;;;;;;;;5111738;28;20280;-62
2021/04/23 04:12:55;;;;;;;13.32;7.60;;;;;;;;;;5111417;28;20704;-62
2021/04/23 04:15:22;;;;;;;10.88;6.45;;;;;;;;;;5112408;28;20225;-61
2021/04/23 04:17:49;;;;;;;15.07;7.28;;;;;;;;;;5118753;28;20196;-62
2021/04/23 04:20:15;;;;;;;15.68;6.38;;;;;;;;;;5122823;28;20202;-60
2021/04/23 04:22:43;;;;;;;17.77;6.50;;;;;;;;;;5124879;28;20206;-61
2021/04/23 04:25:12;;;;;;;13.45;7.40;;;;;;;;;;5123465;28;20226;-62
2021/04/23 04:27:40;;;;;;;10.65;6.03;;;;;;;;;;5114055;28;20218;-60
2021/04/23 04:30:08;;;;;;;15.60;6.20;;;;;;;;;;5113145;28;20212;-62
2021/04/23 04:32:35;;;;;;;9.05;6.05;;;;;;;;;;5120428;28;20240;-62
2021/04/23 04:35:02;;;;;;;12.25;5.88;;;;;;;;;;5112047;28;20226;-61
2021/04/23 04:37:29;;;;;;;10.85;6.47;;;;;;;;;;5111999;28;20621;-62
2021/04/23 04:39:57;;;;;;;13.07;6.32;;;;;;;;;;5111223;28;20206;-62
2021/04/23 04:42:25;;;;;;;12.93;6.72;;;;;;;;;;5111855;28;20224;-62
2021/04/23 04:44:52;;;;;;;14.20;6.25;;;;;;;;;;5111753;28;20209;-62
2021/04/23 04:47:18;;;;;;;9.88;6.03;;;;;;;;;;5111929;28;20221;-62
2021/04/23 04:49:46;;;;;;;8.68;5.28;;;;;;;;;;5111469;28;20199;-62
2021/04/23 04:52:12;;;;;;;12.57;6.38;;;;;;;;;;5111055;28;20212;-62
2021/04/23 04:54:39;;;;;;;9.80;6.40;;;;;;;;;;5111628;28;20209;-62
2021/04/23 04:57:06;;;;;;;12.02;6.38;;;;;;;;;;5112291;28;20255;-61
2021/04/23 04:59:34;;;;;;;12.15;6.35;;;;;;;;;;5111385;28;20209;-63
2021/04/23 05:02:01;;;;;;;13.73;5.90;;;;;;;;;;5111860;28;20206;-62
2021/04/23 05:04:28;;;;;;;17.08;6.65;;;;;;;;;;5110995;28;20223;-61
2021/04/23 05:06:54;;;;;;;11.90;6.40;;;;;;;;;;5110394;28;20232;-62
2021/04/23 05:09:21;;;;;;;13.43;5.90;;;;;;;;;;5110893;28;20202;-61
2021/04/23 05:11:48;;;;;;;14.43;6.53;;;;;;;;;;5110935;28;20209;-61
2021/04/23 05:14:15;;;;;;;10.50;5.88;;;;;;;;;;5110534;28;20198;-61
2021/04/23 05:16:42;;;;;;;9.43;6.15;;;;;;;;;;5110649;28;20217;-62
2021/04/23 05:19:09;;;;;;;10.20;4.95;;;;;;;;;;5098082;28;20214;-62
2021/04/23 05:21:36;;;;;;;10.30;5.75;;;;;;;;;;5097654;28;20214;-62
2021/04/23 05:24:03;;;;;;;9.75;6.53;;;;;;;;;;5098584;28;20260;-61
2021/04/23 05:26:29;;;;;;;15.23;5.60;;;;;;;;;;5097263;28;20272;-62
2021/04/23 05:28:56;;;;;;;11.73;6.35;;;;;;;;;;5096726;28;20202;-62
2021/04/23 05:31:23;;;;;;;12.98;5.97;;;;;;;;;;5096352;28;20212;-62
2021/04/23 05:33:51;;;;;;;13.23;6.20;;;;;;;;;;5096485;28;20206;-62
2021/04/23 05:36:17;;;;;;;9.50;6.32;;;;;;;;;;5097245;28;20715;-62
2021/04/23 05:38:44;;;;;;;10.25;5.93;;;;;;;;;;5096873;28;20204;-61
2021/04/23 05:41:11;;;;;;;12.93;5.90;;;;;;;;;;5098361;28;20266;-63
2021/04/23 05:43:39;;;;;;;14.15;6.35;;;;;;;;;;5099160;28;20205;-63
2021/04/23 05:46:06;;;;;;;12.18;6.55;;;;;;;;;;5098985;28;20279;-62
2021/04/23 05:48:33;;;;;;;13.13;6.28;;;;;;;;;;5098750;28;20562;-63
2021/04/23 05:51:01;;;;;;;10.85;5.55;;;;;;;;;;5098418;28;20260;-62
2021/04/23 05:53:27;;;;;;;15.00;7.03;;;;;;;;;;5098012;28;20203;-63
2021/04/23 05:55:54;;;;;;;11.20;6.03;;;;;;;;;;5097144;28;20220;-63
2021/04/23 05:58:21;;;;;;;11.77;6.00;;;;;;;;;;5096491;28;20198;-62
2021/04/23 06:00:48;;;;;;;11.38;5.93;;;;;;;;;;5096248;28;20213;-63
2021/04/23 06:03:15;;;;;;;19.08;6.22;;;;;;;;;;5095987;28;20198;-62
2021/04/23 06:05:42;;;;;;;10.30;5.40;;;;;;;;;;5096054;28;20235;-61
2021/04/23 06:08:11;;;;;;;9.60;5.63;;;;;;;;;;5096021;28;20551;-62
2021/04/23 06:10:38;;;;;;;11.25;6.03;;;;;;;;;;5095677;28;20198;-63
2021/04/23 06:13:05;;;;;;;9.73;5.63;;;;;;;;;;5095375;28;20257;-62
2021/04/23 06:15:32;;;;;;;13.75;6.00;;;;;;;;;;5095720;28;20280;-62
2021/04/23 06:17:59;;;;;;;8.52;6.00;;;;;;;;;;5096603;28;20601;-63
2021/04/23 06:20:27;;;;;;;8.00;4.57;;;;;;;;;;5106835;28;20207;-63
2021/04/23 06:22:53;;;;;;;13.77;7.30;;;;;;;;;;5101206;28;20221;-62
2021/04/23 06:25:22;;;;;;;12.25;5.75;;;;;;;;;;5095936;28;20223;-62
2021/04/23 06:27:51;;;;;;;13.35;5.72;;;;;;;;;;5096063;28;20543;-62
2021/04/23 06:30:19;;;;;;;12.05;6.25;;;;;;;;;;5094821;28;20551;-61
2021/04/23 06:32:46;;;;;;;12.48;5.88;;;;;;;;;;5096177;28;20214;-62
2021/04/23 06:35:14;;;;;;;6.40;5.05;;;;;;;;;;5095380;28;20227;-61
2021/04/23 06:37:41;;;;;;;12.52;5.90;;;;;;;;;;5096337;28;20267;-62
2021/04/23 06:40:08;;;;;;;12.60;6.35;;;;;;;;;;5095748;28;20574;-62
2021/04/23 06:42:36;;;;;;;13.32;5.80;;;;;;;;;;5095824;28;20206;-62
2021/04/23 06:45:03;;;;;;;14.30;6.10;;;;;;;;;;5095764;28;20221;-62
2021/04/23 06:47:32;;;;;;;9.02;5.53;;;;;;;;;;5095732;28;20227;-62
2021/04/23 06:49:59;;;;;;;11.60;5.80;;;;;;;;;;5096722;28;20208;-62
2021/04/23 06:52:26;;;;;;;13.75;5.18;;;;;;;;;;5096792;28;20307;-62
2021/04/23 06:54:53;;;;;;;9.98;4.50;;;;;;;;;;5095463;28;20231;-62
2021/04/23 06:57:19;;;;;;;9.35;5.20;;;;;;;;;;5095931;28;20291;-62
2021/04/23 06:59:47;;;;;;;13.70;6.60;;;;;;;;;;5096002;28;20200;-63
2021/04/23 07:02:14;;;;;;;8.40;5.40;;;;;;;;;;5096316;28;20196;-63
2021/04/23 07:04:41;;;;;;;11.27;5.70;;;;;;;;;;5096593;28;20200;-61
2021/04/23 07:07:07;;;;;;;7.53;4.60;;;;;;;;;;5097031;28;20696;-62
2021/04/23 07:09:34;;;;;;;9.40;5.03;;;;;;;;;;5097099;28;20211;-63
2021/04/23 07:12:02;;;;;;;7.93;4.57;;;;;;;;;;5096316;28;20200;-61
2021/04/23 07:14:29;;;;;;;7.28;4.35;;;;;;;;;;5096335;28;20197;-63
2021/04/23 07:16:56;;;;;;;7.50;5.10;;;;;;;;;;5095105;28;20278;-62
2021/04/23 07:19:23;;;;;;;9.65;5.25;;;;;;;;;;5095688;28;20230;-62
2021/04/23 07:21:50;;;;;;;11.68;4.78;;;;;;;;;;5094640;28;20590;-63
2021/04/23 07:24:16;;;;;;;7.03;4.18;;;;;;;;;;5094532;28;20204;-62
2021/04/23 07:26:43;;;;;;;9.05;4.35;;;;;;;;;;5093987;28;20227;-63
2021/04/23 07:29:10;;;;;;;8.63;4.22;;;;;;;;;;5094421;28;20207;-61
2021/04/23 07:31:37;;;;;;;9.05;5.15;;;;;;;;;;5095025;28;20204;-60
2021/04/23 07:34:04;;;;;;;7.32;4.68;;;;;;;;;;5094733;28;20287;-61
2021/04/23 07:36:31;;;;;;;12.75;5.25;;;;;;;;;;5094663;28;20220;-61
2021/04/23 07:38:58;;;;;;;7.85;4.25;;;;;;;;;;5094925;28;20214;-61
2021/04/23 07:41:25;;;;;;;9.15;4.38;;;;;;;;;;5094144;28;20204;-61
2021/04/23 07:43:52;;;;;;;8.52;4.68;;;;;;;;;;5094325;28;20227;-62
2021/04/23 07:46:18;;;;;;;11.30;4.20;;;;;;;;;;5093928;28;20224;-61
2021/04/23 07:48:45;;;;;;;8.52;4.78;;;;;;;;;;5094653;28;20261;-62
2021/04/23 07:51:13;;;;;;;18.15;6.03;;;;;;;;;;5094109;28;20201;-62
2021/04/23 07:53:40;;;;;;;9.60;4.22;;;;;;;;;;5094275;28;20199;-62
2021/04/23 07:56:06;;;;;;;17.70;4.20;;;;;;;;;;5094160;28;20229;-62
2021/04/23 07:58:33;;;;;;;7.05;4.15;;;;;;;;;;5094401;28;20208;-62
2021/04/23 08:01:00;;;;;;;10.93;4.80;;;;;;;;;;5093930;28;20201;-62
2021/04/23 08:03:30;;;;;;;9.57;5.38;;;;;;;;;;5094082;28;20203;-61
2021/04/23 08:05:57;;;;;;;6.18;4.50;;;;;;;;;;5093853;28;20228;-63
2021/04/23 08:08:25;;;;;;;10.38;4.60;;;;;;;;;;5093271;28;20436;-62
2021/04/23 08:10:52;;;;;;;7.90;5.07;;;;;;;;;;5098259;28;20548;-63
2021/04/23 08:13:18;;;;;;;7.72;4.72;;;;;;;;;;5110296;28;20219;-63
2021/04/23 08:15:45;;;;;;;8.93;4.40;;;;;;;;;;5094168;28;20217;-67
2021/04/23 08:18:12;;;;;;;5.97;3.70;;;;;;;;;;5093144;28;20732;-65
2021/04/23 08:20:39;;;;;;;7.55;4.97;;;;;;;;;;5093663;28;20258;-66
2021/04/23 08:23:06;;;;;;;9.35;4.85;;;;;;;;;;5093641;28;20664;-62
2021/04/23 08:25:33;;;;;;;11.63;4.93;;;;;;;;;;5093565;28;20595;-64
2021/04/23 08:28:00;;;;;;;8.93;4.47;;;;;;;;;;5093710;28;20246;-63
2021/04/23 08:30:28;;;;;;;9.48;4.93;;;;;;;;;;5093627;28;20205;-63
2021/04/23 08:32:55;;;;;;;10.05;4.90;;;;;;;;;;5093294;28;20205;-62
2021/04/23 08:35:22;;;;;;;5.95;4.80;;;;;;;;;;5093964;28;20231;-62
2021/04/23 08:37:49;;;;;;;10.20;5.03;;;;;;;;;;5094185;28;20204;-63
2021/04/23 08:40:17;;;;;;;7.32;4.53;;;;;;;;;;5094148;28;20200;-63
2021/04/23 08:42:45;;;;;;;13.10;5.30;;;;;;;;;;5093688;28;20201;-64
2021/04/23 08:45:13;;;;;;;11.60;4.60;;;;;;;;;;5093234;28;20511;-64
2021/04/23 08:47:41;;;;;;;7.67;5.37;;;;;;;;;;5093489;28;20474;-64
2021/04/23 08:50:10;;;;;;;12.63;5.60;;;;;;;;;;5093902;28;20440;-63
2021/04/23 08:52:36;;;;;;;5.93;4.37;;;;;;;;;;5093444;28;20447;-64
2021/04/23 08:55:03;;;;;;;7.47;4.73;;;;;;;;;;5096843;28;20842;-66
2021/04/23 08:57:30;;;;;;;11.30;4.53;;;;;;;;;;5097195;28;20508;-65
2021/04/23 08:59:58;;;;;;;11.13;5.35;;;;;;;;;;5096990;28;20436;-65
2021/04/23 09:02:25;;;;;;;9.98;4.90;;;;;;;;;;5096444;28;20448;-63
2021/04/23 09:04:52;;;;;;;6.95;4.80;;;;;;;;;;5097725;28;20265;-64
2021/04/23 09:07:20;;;;;;;7.67;4.37;;;;;;;;;;5097212;28;20626;-65
2021/04/23 09:09:47;;;;;;;7.20;4.63;;;;;;;;;;5099785;28;20447;-62
2021/04/23 09:12:18;;;;;;;7.80;4.57;;;;;;;;;;5099310;28;20245;-62
2021/04/23 09:14:45;;;;;;;8.40;4.37;;;;;;;;;;5099565;28;20949;-63
2021/04/23 09:17:13;;;;;;;7.20;4.37;;;;;;;;;;5099833;28;20436;-62
2021/04/23 09:19:40;;;;;;;7.90;4.27;;;;;;;;;;5100255;28;20476;-66
2021/04/23 09:22:08;;;;;;;7.10;4.40;;;;;;;;;;5099576;28;20908;-63
2021/04/23 09:24:36;;;;;;;8.50;4.20;;;;;;;;;;5097537;28;20448;-62
2021/04/23 09:27:08;;;;;;;8.33;4.53;;;;;;;;;;5097728;28;20510;-63
2021/04/23 09:29:37;;;;;;;12.47;4.93;;;;;;;;;;5097007;28;20915;-63
2021/04/23 09:32:11;;;;;;;8.47;3.90;;;;;;;;;;5097550;28;20447;-63
2021/04/23 09:34:47;;;;;;;9.97;4.43;;;;;;;;;;5097881;28;20453;-64
2021/04/23 09:37:15;;;;;;;8.97;4.10;;;;;;;;;;5097457;28;20899;-64
2021/04/23 09:39:42;;;;;;;10.93;4.30;;;;;;;;;;5097245;28;20455;-64
2021/04/23 09:42:10;;;;;;;7.90;3.70;;;;;;;;;;5096762;28;20964;-63
2021/04/23 09:44:38;;;;;;;8.97;4.20;;;;;;;;;;5096358;28;21033;-63
2021/04/23 09:47:11;;;;;;;9.70;3.63;;;;;;;;;;5097459;28;20484;-63
2021/04/23 09:49:37;;;;;;;13.57;4.87;;;;;;;;;;5096450;28;20443;-66
2021/04/23 09:52:06;;;;;;;7.10;4.20;;;;;;;;;;5096731;28;20451;-64
2021/04/23 09:54:33;;;;;;;5.40;3.80;;;;;;;;;;5096140;28;20470;-64
2021/04/23 09:57:01;;;;;;;5.80;3.90;;;;;;;;;;5096633;28;20452;-64
2021/04/23 09:59:28;;;;;;;8.85;5.00;;;;;;;;;;5101900;28;20500;-63
2021/04/23 10:01:57;;;;;;;7.47;3.73;;;;;;;;;;5104561;28;20205;-64
2021/04/23 10:04:25;;;;;;;6.93;4.67;;;;;;;;;;5104570;28;20453;-65
2021/04/23 10:07:11;;;;;;;7.30;4.73;;;;;;;;;;5110497;28;20498;-63
2021/04/23 10:10:00;;;;;;;6.73;3.80;;;;;;;;;;5113318;28;20444;-63
2021/04/23 10:12:40;;;;;;;9.90;4.40;;;;;;;;;;5107960;28;20459;-64
2021/04/23 10:15:08;;;;;;;11.10;4.20;;;;;;;;;;5101169;28;20482;-64
2021/04/23 10:17:36;;;;;;;9.90;4.90;;;;;;;;;;5098638;28;20448;-65
2021/04/23 10:20:03;;;;;;;8.97;4.50;;;;;;;;;;5098114;28;20594;-61
2021/04/23 10:22:31;;;;;;;6.37;4.20;;;;;;;;;;5097206;28;20470;-64
2021/04/23 10:24:58;;;;;;;9.63;4.63;;;;;;;;;;5096709;28;20994;-64
2021/04/23 10:27:24;;;;;;;5.47;4.03;;;;;;;;;;5096714;28;20487;-64
2021/04/23 10:29:52;;;;;;;5.73;3.80;;;;;;;;;;5097584;28;20435;-63
2021/04/23 10:32:19;;;;;;;9.77;5.17;;;;;;;;;;5105128;28;20464;-63
2021/04/23 10:34:46;;;;;;;11.03;3.83;;;;;;;;;;5106234;28;20443;-64
2021/04/23 10:37:13;;;;;;;7.60;4.30;;;;;;;;;;5106421;28;20450;-62
2021/04/23 10:39:42;;;;;;;9.03;4.80;;;;;;;;;;5105753;28;20452;-62
2021/04/23 10:42:24;;;;;;;9.30;4.20;;;;;;;;;;5106070;28;20444;-64
2021/04/23 10:44:51;;;;;;;6.67;4.50;;;;;;;;;;5105782;28;20451;-63
2021/04/23 10:47:29;;;;;;;8.40;4.70;;;;;;;;;;5103835;28;20874;-64
2021/04/23 10:50:14;;;;;;;11.00;5.07;;;;;;;;;;5105320;28;20488;-64
2021/04/23 10:53:05;;;;;;;6.67;4.40;;;;;;;;;;5103489;28;20427;-65
2021/04/23 10:55:43;;;;;;;5.90;4.20;;;;;;;;;;5086983;28;20545;-64
2021/04/23 10:58:10;;;;;;;9.03;5.23;;;;;;;;;;5101793;28;20424;-65
2021/04/23 11:00:40;;;;;;;9.53;4.00;;;;;;;;;;5103312;28;20821;-65
2021/04/23 11:03:23;;;;;;;11.07;5.00;;;;;;;;;;5101754;28;20473;-66
2021/04/23 11:05:50;;;;;;;9.50;4.90;;;;;;;;;;5101431;28;20571;-66
2021/04/23 11:08:16;;;;;;;6.93;3.97;;;;;;;;;;5102944;28;20464;-63
2021/04/23 11:11:01;;;;;;;9.43;4.47;;;;;;;;;;5103263;28;20448;-63
2021/04/23 11:13:29;;;;;;;8.97;4.10;;;;;;;;;;5105483;28;20438;-70
2021/04/23 11:16:11;;;;;;;9.00;4.63;;;;;;;;;;5102577;28;20550;-66
2021/04/23 11:18:37;;;;;;;10.67;5.00;;;;;;;;;;5089848;28;20529;-64
2021/04/23 11:21:19;;;;;;;7.00;4.37;;;;;;;;;;5100427;28;20446;-66
2021/04/23 11:24:04;;;;;;;7.80;4.60;;;;;;;;;;5100765;28;20447;-64
2021/04/23 11:26:46;;;;;;;8.10;4.37;;;;;;;;;;5100041;28;20933;-64
2021/04/23 11:29:14;;;;;;;9.20;4.60;;;;;;;;;;5102520;28;20451;-64
2021/04/23 11:31:55;;;;;;;8.50;4.40;;;;;;;;;;5101360;28;20862;-62
2021/04/23 11:34:34;;;;;;;8.87;4.20;;;;;;;;;;5098134;28;20439;-62
2021/04/23 11:37:01;;;;;;;7.17;4.43;;;;;;;;;;5098794;28;20451;-62
2021/04/23 11:39:30;;;;;;;11.00;4.27;;;;;;;;;;5098074;28;20585;-62
2021/04/23 11:42:17;;;;;;;5.50;4.43;;;;;;;;;;5098305;28;20436;-61
2021/04/23 11:44:52;;;;;;;6.07;4.17;;;;;;;;;;5096669;28;20444;-61
2021/04/23 11:47:19;;;;;;;8.40;4.20;;;;;;;;;;5096848;28;20460;-62
2021/04/23 11:49:46;;;;;;;5.90;4.43;;;;;;;;;;5094974;28;20456;-62
2021/04/23 11:52:13;;;;;;;5.10;3.63;;;;;;;;;;5095302;28;20492;-61
2021/04/23 11:54:43;;;;;;;6.83;4.33;;;;;;;;;;5094288;28;20448;-62
2021/04/23 11:57:11;;;;;;;11.17;5.10;;;;;;;;;;5096336;28;20449;-60
2021/04/23 11:59:38;;;;;;;6.20;4.17;;;;;;;;;;5099711;28;20519;-63
2021/04/23 12:02:05;;;;;;;7.93;4.57;;;;;;;;;;5094653;28;20830;-61
2021/04/23 12:04:45;;;;;;;9.13;4.60;;;;;;;;;;5093709;28;20490;-62
2021/04/23 12:07:13;;;;;;;10.13;5.10;;;;;;;;;;5093772;28;20571;-63
2021/04/23 12:09:41;;;;;;;6.80;4.43;;;;;;;;;;5093847;28;20456;-62
2021/04/23 12:12:09;;;;;;;5.80;4.30;;;;;;;;;;5094075;28;20441;-66
2021/04/23 12:14:43;;;;;;;5.57;4.37;;;;;;;;;;5093518;28;20446;-65
2021/04/23 12:17:11;;;;;;;12.83;5.80;;;;;;;;;;5093677;28;20428;-64
2021/04/23 12:19:38;;;;;;;5.83;3.90;;;;;;;;;;5093864;28;20522;-64
2021/04/23 12:22:05;;;;;;;6.73;4.40;;;;;;;;;;5093191;28;20444;-65
2021/04/23 12:24:32;;;;;;;10.23;4.73;;;;;;;;;;5093974;28;20441;-64
2021/04/23 12:26:59;;;;;;;7.50;4.20;;;;;;;;;;5093043;28;21050;-63
2021/04/23 12:29:26;;;;;;;8.07;5.33;;;;;;;;;;5096518;28;20453;-64
2021/04/23 12:31:54;;;;;;;9.50;4.77;;;;;;;;;;5097615;28;20452;-64
2021/04/23 12:34:21;;;;;;;6.80;4.90;;;;;;;;;;5097694;28;21041;-64
2021/04/23 12:36:50;;;;;;;9.07;4.93;;;;;;;;;;5098111;28;20465;-64
2021/04/23 12:39:19;;;;;;;8.47;4.83;;;;;;;;;;5098324;28;20441;-63
2021/04/23 12:41:47;;;;;;;7.87;4.50;;;;;;;;;;5098390;28;20448;-61
2021/04/23 12:44:15;;;;;;;11.03;5.20;;;;;;;;;;5098738;28;20851;-60
2021/04/23 12:46:42;;;;;;;7.83;4.40;;;;;;;;;;5097374;28;20543;-60
2021/04/23 12:49:11;;;;;;;6.77;3.83;;;;;;;;;;5097357;28;20826;-61
2021/04/23 12:51:41;;;;;;;6.27;4.10;;;;;;;;;;5097828;28;20448;-62
2021/04/23 12:54:08;;;;;;;5.00;3.53;;;;;;;;;;5097557;28;20442;-61
2021/04/23 12:56:35;;;;;;;7.17;3.70;;;;;;;;;;5097175;28;20871;-62
2021/04/23 12:59:02;;;;;;;7.97;4.20;;;;;;;;;;5096920;28;20449;-61
2021/04/23 13:01:29;;;;;;;5.87;4.00;;;;;;;;;;5096635;28;20867;-63
2021/04/23 13:04:03;;;;;;;7.87;4.10;;;;;;;;;;5096758;28;20960;-63
2021/04/23 13:06:30;;;;;;;10.23;4.20;;;;;;;;;;5096327;28;20487;-62
2021/04/23 13:08:58;;;;;;;6.20;4.10;;;;;;;;;;5096798;28;20456;-62
2021/04/23 13:11:25;;;;;;;10.03;3.90;;;;;;;;;;5096579;28;20440;-61
2021/04/23 13:13:52;;;;;;;9.33;4.40;;;;;;;;;;5096552;28;20967;-64
2021/04/23 13:16:19;;;;;;;8.60;4.20;;;;;;;;;;5097193;28;20821;-64
2021/04/23 13:18:46;;;;;;;6.27;4.40;;;;;;;;;;5097043;28;20446;-62
2021/04/23 13:21:13;;;;;;;7.37;4.10;;;;;;;;;;5097005;28;20538;-64
2021/04/23 13:23:43;;;;;;;7.17;3.83;;;;;;;;;;5097010;28;20448;-64
2021/04/23 13:26:12;;;;;;;8.13;4.80;;;;;;;;;;5097301;28;20464;-63
2021/04/23 13:28:42;;;;;;;9.63;4.33;;;;;;;;;;5096580;28;20932;-62
2021/04/23 13:31:10;;;;;;;4.83;3.43;;;;;;;;;;5096678;28;20438;-62
2021/04/23 13:33:38;;;;;;;9.53;3.87;;;;;;;;;;5096622;28;20452;-62
2021/04/23 13:36:06;;;;;;;4.90;3.93;;;;;;;;;;5096379;28;20465;-62
2021/04/23 13:38:36;;;;;;;7.73;3.60;;;;;;;;;;5096599;28;20444;-63
2021/04/23 13:41:19;;;;;;;4.90;3.63;;;;;;;;;;5095867;28;20554;-62
2021/04/23 13:43:47;;;;;;;7.27;3.80;;;;;;;;;;5096710;28;20429;-62
2021/04/23 13:46:14;;;;;;;7.23;3.97;;;;;;;;;;5096131;28;20469;-62
2021/04/23 13:48:42;;;;;;;12.63;3.77;;;;;;;;;;5095604;28;21029;-61
2021/04/23 13:51:19;;;;;;;7.37;3.93;;;;;;;;;;5096049;28;20433;-61
2021/04/23 13:53:48;;;;;;;5.60;4.10;;;;;;;;;;5095632;28;20445;-62
2021/04/23 13:56:15;;;;;;;6.90;4.07;;;;;;;;;;5095800;28;20495;-63
2021/04/23 13:59:00;;;;;;;6.63;3.50;;;;;;;;;;5096420;28;20445;-62
2021/04/23 14:01:28;;;;;;;6.07;3.37;;;;;;;;;;5096042;28;20449;-62
2021/04/23 14:03:55;;;;;;;4.57;2.97;;;;;;;;;;5096545;28;20452;-62
2021/04/23 14:06:22;;;;;;;8.77;3.20;;;;;;;;;;5096255;28;20475;-62
2021/04/23 14:08:49;;;;;;;6.73;2.70;;;;;;;;;;5096245;28;20496;-62
2021/04/23 14:11:15;;;;;;;5.80;3.30;;;;;;;;;;5096239;28;20453;-62
2021/04/23 14:13:49;;;;;;;7.90;3.53;;;;;;;;;;5096205;28;20445;-62
2021/04/23 14:16:17;;;;;;;6.23;3.30;;;;;;;;;;5095894;28;20980;-62
2021/04/23 14:18:44;;;;;;;10.40;4.03;;;;;;;;;;5095656;28;20494;-62
2021/04/23 14:21:11;;;;;;;9.47;3.73;;;;;;;;;;5096283;28;20436;-63
2021/04/23 14:23:37;;;;;;;5.60;3.20;;;;;;;;;;5095463;28;20952;-60
2021/04/23 14:26:04;;;;;;;5.80;3.33;;;;;;;;;;5095866;28;20464;-62
2021/04/23 14:28:31;;;;;;;4.77;2.87;;;;;;;;;;5095645;28;20499;-62
2021/04/23 14:30:58;;;;;;;4.80;2.83;;;;;;;;;;5095632;28;20457;-62
2021/04/23 14:33:26;;;;;;;9.23;3.43;;;;;;;;;;5095666;28;20929;-62
2021/04/23 14:35:53;;;;;;;5.60;3.20;;;;;;;;;;5095855;28;20473;-63
2021/04/23 14:38:20;;;;;;;7.90;3.67;;;;;;;;;;5096083;28;20442;-62
2021/04/23 14:40:46;;;;;;;5.80;3.60;;;;;;;;;;5095733;28;20456;-63
2021/04/23 14:43:13;;;;;;;5.37;3.10;;;;;;;;;;5096059;28;20448;-62
2021/04/23 14:45:40;;;;;;;5.20;2.83;;;;;;;;;;5095431;28;20468;-62
2021/04/23 14:48:07;;;;;;;5.70;2.80;;;;;;;;;;5095576;28;21003;-63